San Francisco, California
Traffic Map
Current Weather Conditions
San Francisco, California
Few Clouds
Few Clouds
18°
Feels Like: 18°
Wind Chill: 18° Ceiling: Unl
Heat Index: 18° Visibility: 10mi
Dew Point: Wind: 6mph
Humidity: 48% Direction: 350° (N)
Pressure: 30.14in Gusts: 0mph
Raw Report DataKSFO 042356Z 35005KT 10SM FEW025 18/07 A3014 RMK AO2 SLP205 T01830072 10189 20133 55002
Traffic Incident Summary
Active as of:
Severity:
Category:
InformationThere was an issue retrieving the traffic information for this location. Please try a different location or try again shortly.
Advertisements
Track Severe Weather on mobile